createdAt,value
2018-11-06T00:02:00.486Z,9.30
2018-11-06T00:04:33.722Z,9.30
2018-11-06T00:07:01.210Z,9.20
2018-11-06T00:09:28.708Z,9.20
2018-11-06T00:11:56.093Z,9.20
2018-11-06T00:14:23.462Z,9.20
2018-11-06T00:16:50.857Z,9.20
2018-11-06T00:19:24.346Z,9.20
2018-11-06T00:21:52.784Z,9.20
2018-11-06T00:24:20.280Z,9.20
2018-11-06T00:26:47.682Z,9.20
2018-11-06T00:29:15.082Z,9.20
2018-11-06T00:31:48.571Z,9.20
2018-11-06T00:34:22.190Z,9.20
2018-11-06T00:36:49.672Z,9.20
2018-11-06T00:39:18.896Z,9.20
2018-11-06T00:41:46.384Z,9.20
2018-11-06T00:44:14.686Z,9.20
2018-11-06T00:46:42.943Z,9.20
2018-11-06T00:49:10.286Z,9.20
2018-11-06T00:51:37.733Z,9.20
2018-11-06T00:54:05.505Z,9.20
2018-11-06T00:56:32.865Z,9.20
2018-11-06T00:59:06.547Z,9.20
2018-11-06T01:01:33.912Z,9.20
2018-11-06T01:04:08.883Z,9.20
2018-11-06T01:06:36.492Z,9.20
2018-11-06T01:09:05.250Z,9.20
2018-11-06T01:11:32.594Z,9.20
2018-11-06T01:14:00.957Z,9.20
2018-11-06T01:16:28.377Z,9.20
2018-11-06T01:19:02.034Z,9.20
2018-11-06T01:21:29.454Z,9.20
2018-11-06T01:23:56.831Z,9.20
2018-11-06T01:26:25.171Z,9.20
2018-11-06T01:28:52.533Z,9.20
2018-11-06T01:31:19.966Z,9.20
2018-11-06T01:33:53.361Z,9.20
2018-11-06T01:36:20.839Z,9.20
2018-11-06T01:38:48.177Z,9.20
2018-11-06T01:41:15.713Z,9.20
2018-11-06T01:43:44.108Z,9.20
2018-11-06T01:46:17.850Z,9.10
2018-11-06T01:48:45.213Z,9.10
2018-11-06T01:51:12.719Z,9.10
2018-11-06T01:53:40.105Z,9.10
2018-11-06T01:56:07.508Z,9.10
2018-11-06T01:58:41.173Z,9.10
2018-11-06T02:01:08.521Z,9.10
2018-11-06T02:03:36.044Z,9.10
2018-11-06T02:06:03.872Z,9.10
2018-11-06T02:08:31.184Z,9.10
2018-11-06T02:10:58.554Z,9.10
2018-11-06T02:13:26.057Z,9.10
2018-11-06T02:15:54.280Z,9.00
2018-11-06T02:18:21.617Z,9.00
2018-11-06T02:20:49.125Z,9.00
2018-11-06T02:23:22.831Z,9.00
2018-11-06T02:25:50.187Z,9.00
2018-11-06T02:28:17.500Z,8.90
2018-11-06T02:30:44.877Z,8.90
2018-11-06T02:34:38.105Z,8.80
2018-11-06T02:37:05.586Z,8.70
2018-11-06T02:39:32.965Z,8.60
2018-11-06T02:42:02.275Z,8.60
2018-11-06T02:44:30.341Z,8.50
2018-11-06T02:46:57.690Z,8.50
2018-11-06T02:49:25.130Z,8.50
2018-11-06T02:51:57.491Z,8.50
2018-11-06T02:54:24.886Z,8.40
2018-11-06T02:56:58.376Z,8.40
2018-11-06T02:59:25.696Z,8.40
2018-11-06T03:01:59.306Z,8.40
2018-11-06T03:04:26.661Z,8.30
2018-11-06T03:06:57.017Z,8.30
2018-11-06T03:09:24.357Z,8.30
2018-11-06T03:11:51.738Z,8.20
2018-11-06T03:14:19.086Z,8.20
2018-11-06T03:16:46.443Z,8.20
2018-11-06T03:19:13.777Z,8.20
2018-11-06T03:21:47.274Z,8.10
2018-11-06T03:24:14.611Z,8.10
2018-11-06T03:26:41.948Z,8.10
2018-11-06T03:29:09.238Z,8.10
2018-11-06T03:31:36.625Z,8.00
2018-11-06T03:36:38.389Z,8.00
2018-11-06T03:39:07.652Z,8.00
2018-11-06T03:41:35.040Z,8.00
2018-11-06T03:44:02.548Z,7.90
2018-11-06T03:46:30.137Z,7.90
2018-11-06T03:48:57.503Z,7.90
2018-11-06T03:51:24.844Z,7.90
2018-11-06T03:53:53.058Z,7.80
2018-11-06T03:56:26.681Z,7.80
2018-11-06T03:58:54.021Z,7.80
2018-11-06T04:01:22.161Z,7.70
2018-11-06T04:03:49.564Z,7.70
2018-11-06T04:06:16.881Z,7.70
2018-11-06T04:08:44.239Z,7.70
2018-11-06T04:11:11.663Z,7.70
2018-11-06T04:13:42.881Z,7.70
2018-11-06T04:16:10.237Z,7.70
2018-11-06T04:18:37.628Z,7.60
2018-11-06T04:21:05.065Z,7.60
2018-11-06T04:23:32.492Z,7.60
2018-11-06T04:26:00.763Z,7.60
2018-11-06T04:28:28.144Z,7.50
2018-11-06T04:30:55.532Z,7.50
2018-11-06T04:33:22.990Z,7.50
2018-11-06T04:35:50.395Z,7.50
2018-11-06T04:38:17.730Z,7.40
2018-11-06T04:40:51.378Z,7.40
2018-11-06T04:43:25.005Z,7.40
2018-11-06T04:45:52.532Z,7.40
2018-11-06T04:48:19.879Z,7.40
2018-11-06T04:50:47.276Z,7.30
2018-11-06T04:53:14.616Z,7.30
2018-11-06T04:55:42.024Z,7.30
2018-11-06T04:58:09.473Z,7.30
2018-11-06T05:00:36.826Z,7.30
2018-11-06T05:03:10.435Z,7.30
2018-11-06T05:05:37.850Z,7.30
2018-11-06T05:08:05.261Z,7.20
2018-11-06T05:10:34.523Z,7.20
2018-11-06T05:13:08.214Z,7.20
2018-11-06T05:15:35.594Z,7.20
2018-11-06T05:18:03.017Z,7.20
2018-11-06T05:20:34.521Z,7.10
2018-11-06T05:23:01.927Z,7.10
2018-11-06T05:25:29.402Z,7.10
2018-11-06T05:27:56.755Z,7.10
2018-11-06T05:30:24.090Z,7.10
2018-11-06T05:32:58.905Z,7.10
2018-11-06T05:35:32.465Z,7.10
2018-11-06T05:38:06.197Z,7.00
2018-11-06T05:40:48.373Z,7.00
2018-11-06T05:43:16.755Z,7.00
2018-11-06T05:45:44.359Z,7.00
2018-11-06T05:48:12.044Z,7.00
2018-11-06T05:50:39.813Z,7.00
2018-11-06T05:53:07.421Z,7.00
2018-11-06T05:55:34.819Z,7.00
2018-11-06T05:58:02.310Z,7.00
2018-11-06T06:00:29.747Z,7.00
2018-11-06T06:02:57.197Z,6.90
2018-11-06T06:05:24.553Z,6.90
2018-11-06T06:07:51.966Z,6.90
2018-11-06T06:10:19.333Z,6.90
2018-11-06T06:12:47.701Z,6.90
2018-11-06T06:15:15.088Z,6.90
2018-11-06T06:17:44.308Z,7.00
2018-11-06T06:20:11.634Z,7.00
2018-11-06T06:22:39.136Z,7.00
2018-11-06T06:25:06.778Z,7.00
2018-11-06T06:27:34.169Z,7.10
2018-11-06T06:30:01.597Z,7.10
2018-11-06T06:35:03.422Z,7.10
2018-11-06T06:37:31.694Z,7.10
2018-11-06T06:40:07.163Z,7.10
2018-11-06T06:42:41.336Z,7.10
2018-11-06T06:45:10.529Z,7.10
2018-11-06T06:47:37.952Z,7.10
2018-11-06T06:50:07.193Z,7.10
2018-11-06T06:52:34.674Z,7.10
2018-11-06T06:55:02.371Z,7.10
2018-11-06T06:57:29.745Z,7.10
2018-11-06T06:59:57.130Z,7.20
2018-11-06T07:02:24.504Z,7.20
2018-11-06T07:04:58.241Z,7.20
2018-11-06T07:07:25.607Z,7.20
2018-11-06T07:09:53.018Z,7.20
2018-11-06T07:12:21.293Z,7.20
2018-11-06T07:14:48.701Z,7.20
2018-11-06T07:17:16.865Z,7.20
2018-11-06T07:19:44.265Z,7.30
2018-11-06T07:22:11.690Z,7.30
2018-11-06T07:24:45.605Z,7.30
2018-11-06T07:27:19.174Z,7.30
2018-11-06T07:29:52.885Z,7.40
2018-11-06T07:32:20.278Z,7.40
2018-11-06T07:34:47.790Z,7.50
2018-11-06T07:37:15.052Z,7.50
2018-11-06T07:39:42.507Z,7.60
2018-11-06T07:42:10.177Z,7.60
2018-11-06T07:44:37.577Z,7.60
2018-11-06T07:47:05.113Z,7.70
2018-11-06T07:49:32.568Z,7.70
2018-11-06T07:51:59.951Z,7.70
2018-11-06T07:54:27.413Z,7.70
2018-11-06T07:56:54.759Z,7.80
2018-11-06T07:59:22.218Z,7.80
2018-11-06T08:01:55.892Z,7.80
2018-11-06T08:04:23.408Z,7.90
2018-11-06T08:06:50.732Z,7.90
2018-11-06T08:09:18.968Z,7.90
2018-11-06T08:11:46.272Z,8.00
2018-11-06T08:14:13.789Z,8.10
2018-11-06T08:16:41.186Z,8.10
2018-11-06T08:19:14.642Z,8.20
2018-11-06T08:21:42.023Z,8.20
2018-11-06T08:24:09.446Z,8.20
2018-11-06T08:26:37.749Z,8.30
2018-11-06T08:29:05.122Z,8.40
2018-11-06T08:31:32.780Z,8.50
2018-11-06T08:33:59.869Z,8.50
2018-11-06T08:36:29.303Z,8.60
2018-11-06T08:38:56.590Z,8.70
2018-11-06T08:41:23.956Z,8.80
2018-11-06T08:43:52.074Z,8.90
2018-11-06T08:46:20.225Z,9.00
2018-11-06T08:48:53.879Z,9.10
2018-11-06T08:51:21.323Z,9.20
2018-11-06T08:53:48.727Z,9.20
2018-11-06T08:56:16.885Z,9.20
2018-11-06T08:58:44.284Z,9.20
2018-11-06T09:01:11.637Z,9.20
2018-11-06T09:03:38.977Z,9.20
2018-11-06T09:06:06.345Z,9.30
2018-11-06T09:08:33.729Z,9.30
2018-11-06T09:11:01.180Z,9.40
2018-11-06T09:13:28.686Z,9.50
2018-11-06T09:16:02.305Z,9.50
2018-11-06T09:18:36.059Z,9.60
2018-11-06T09:21:03.573Z,9.60
2018-11-06T09:23:31.738Z,9.70
2018-11-06T09:25:59.913Z,9.70
2018-11-06T09:28:28.129Z,9.80
2018-11-06T09:30:55.587Z,9.90
2018-11-06T09:33:23.002Z,10.00
2018-11-06T09:35:56.617Z,10.00
2018-11-06T09:38:30.949Z,10.10
2018-11-06T09:41:05.047Z,10.20
2018-11-06T09:43:39.119Z,10.30
2018-11-06T09:46:06.602Z,10.30
2018-11-06T09:48:40.243Z,10.40
2018-11-06T09:51:07.659Z,10.50
2018-11-06T09:53:41.269Z,10.60
2018-11-06T09:56:08.742Z,10.80
2018-11-06T09:58:36.138Z,10.80
2018-11-06T10:01:09.732Z,10.90
2018-11-06T10:03:37.090Z,10.90
2018-11-06T10:06:11.327Z,11.00
2018-11-06T10:08:38.746Z,11.10
2018-11-06T10:11:12.387Z,11.10
2018-11-06T10:13:39.765Z,11.20
2018-11-06T10:16:08.167Z,11.20
2018-11-06T10:18:35.685Z,11.30
2018-11-06T10:21:09.456Z,11.40
2018-11-06T10:23:43.434Z,11.50
2018-11-06T10:26:10.993Z,11.60
2018-11-06T10:28:39.192Z,11.70
2018-11-06T10:31:07.422Z,11.70
2018-11-06T10:33:35.369Z,11.80
2018-11-06T10:36:02.981Z,11.90
2018-11-06T10:38:36.614Z,11.90
2018-11-06T10:41:04.441Z,11.90
2018-11-06T10:43:32.959Z,12.00
2018-11-06T10:46:00.422Z,12.00
2018-11-06T10:48:27.896Z,12.00
2018-11-06T10:50:56.124Z,12.10
2018-11-06T10:53:23.600Z,12.10
2018-11-06T10:55:51.053Z,12.10
2018-11-06T10:58:18.653Z,12.20
2018-11-06T11:00:52.585Z,12.40
2018-11-06T11:03:25.634Z,12.50
2018-11-06T11:05:53.060Z,12.60
2018-11-06T11:08:20.470Z,12.70
2018-11-06T11:10:47.895Z,12.80
2018-11-06T11:13:15.457Z,12.90
2018-11-06T11:15:49.029Z,12.90
2018-11-06T11:18:16.511Z,13.00
2018-11-06T11:20:43.965Z,13.00
2018-11-06T11:23:11.442Z,13.00
2018-11-06T11:25:38.950Z,13.00
2018-11-06T11:28:06.412Z,13.10
2018-11-06T11:30:35.802Z,13.20
2018-11-06T11:33:09.434Z,13.30
2018-11-06T11:35:36.878Z,13.40
2018-11-06T11:38:04.403Z,13.50
2018-11-06T11:40:38.865Z,13.60
2018-11-06T11:43:06.354Z,13.70
2018-11-06T11:45:34.486Z,13.80
2018-11-06T11:48:01.859Z,13.90
2018-11-06T11:50:29.328Z,14.00
2018-11-06T11:52:56.698Z,14.10
2018-11-06T11:55:24.109Z,14.20
2018-11-06T11:57:57.593Z,14.30
2018-11-06T12:00:27.280Z,14.40
2018-11-06T12:02:55.055Z,14.40
2018-11-06T12:05:23.306Z,14.50
2018-11-06T12:07:50.781Z,14.60
2018-11-06T12:10:18.157Z,14.60
2018-11-06T12:12:51.856Z,14.60
2018-11-06T12:15:19.221Z,14.70
2018-11-06T12:17:47.070Z,14.70
2018-11-06T12:20:15.950Z,14.70
2018-11-06T12:22:49.504Z,14.80
2018-11-06T12:25:17.286Z,14.80
2018-11-06T12:27:44.409Z,14.90
2018-11-06T12:30:18.120Z,15.00
2018-11-06T12:34:10.133Z,15.10
2018-11-06T12:36:37.709Z,15.20
2018-11-06T12:39:06.225Z,15.30
2018-11-06T12:41:33.657Z,15.30
2018-11-06T12:44:07.954Z,15.30
2018-11-06T12:46:35.785Z,15.30
2018-11-06T12:49:03.893Z,15.30
2018-11-06T12:51:31.241Z,15.40
2018-11-06T12:53:58.755Z,15.50
2018-11-06T12:56:32.448Z,15.60
2018-11-06T12:59:00.116Z,15.60
2018-11-06T13:01:27.543Z,15.70
2018-11-06T13:04:01.286Z,15.80
2018-11-06T13:06:28.784Z,15.90
2018-11-06T13:09:02.404Z,15.90
2018-11-06T13:11:30.706Z,16.00
2018-11-06T13:14:04.321Z,16.00
2018-11-06T13:16:39.294Z,16.00
2018-11-06T13:19:06.943Z,16.00
2018-11-06T13:21:34.399Z,16.00
2018-11-06T13:24:01.968Z,16.00
2018-11-06T13:26:29.544Z,16.10
2018-11-06T13:28:56.898Z,16.20
2018-11-06T13:31:24.370Z,16.30
2018-11-06T13:33:51.817Z,16.30
2018-11-06T13:36:19.189Z,16.40
2018-11-06T13:38:46.637Z,16.50
2018-11-06T13:41:14.104Z,16.60
2018-11-06T13:43:48.065Z,16.70
2018-11-06T13:46:15.533Z,16.80
2018-11-06T13:48:42.940Z,16.80
2018-11-06T13:51:10.358Z,16.80
2018-11-06T13:53:44.347Z,16.80
2018-11-06T13:56:11.801Z,16.70
2018-11-06T13:58:45.438Z,16.70
2018-11-06T14:01:12.847Z,16.70
2018-11-06T14:03:40.230Z,16.50
2018-11-06T14:06:07.703Z,16.50
2018-11-06T14:08:35.149Z,16.40
2018-11-06T14:11:02.654Z,16.30
2018-11-06T14:13:31.015Z,16.20
2018-11-06T14:16:05.161Z,16.20
2018-11-06T14:18:32.585Z,16.10
2018-11-06T14:21:00.101Z,16.10
2018-11-06T14:23:33.819Z,16.00
2018-11-06T14:26:01.330Z,16.00
2018-11-06T14:28:28.706Z,16.00
2018-11-06T14:31:02.283Z,15.90
2018-11-06T14:33:29.722Z,15.90
2018-11-06T14:35:57.189Z,15.90
2018-11-06T14:38:30.773Z,15.80
2018-11-06T14:40:58.230Z,15.80
2018-11-06T14:43:31.853Z,15.70
2018-11-06T14:45:59.203Z,15.80
2018-11-06T14:48:28.353Z,15.70
2018-11-06T14:51:01.729Z,15.70
2018-11-06T14:53:29.267Z,15.80
2018-11-06T14:55:56.843Z,15.70
2018-11-06T14:58:30.384Z,15.70
2018-11-06T15:01:04.026Z,15.80
2018-11-06T15:03:31.515Z,15.70
2018-11-06T15:06:00.057Z,15.70
2018-11-06T15:08:27.503Z,15.70
2018-11-06T15:10:54.965Z,15.70
2018-11-06T15:13:28.527Z,15.70
2018-11-06T15:16:02.199Z,15.60
2018-11-06T15:18:29.617Z,15.60
2018-11-06T15:20:57.218Z,15.50
2018-11-06T15:23:30.723Z,15.40
2018-11-06T15:25:58.222Z,15.40
2018-11-06T15:28:31.843Z,15.30
2018-11-06T15:30:59.228Z,15.30
2018-11-06T15:33:32.896Z,15.20
2018-11-06T15:36:06.622Z,15.10
2018-11-06T15:38:34.166Z,15.10
2018-11-06T15:41:08.957Z,15.00
2018-11-06T15:43:36.918Z,14.90
2018-11-06T15:46:10.350Z,14.80
2018-11-06T15:48:44.155Z,14.80
2018-11-06T15:51:17.749Z,14.70
2018-11-06T15:53:45.258Z,14.70
2018-11-06T15:56:18.803Z,14.60
2018-11-06T15:58:46.282Z,14.60
2018-11-06T16:01:13.715Z,14.50
2018-11-06T16:03:47.412Z,14.50
2018-11-06T16:06:14.866Z,14.40
2018-11-06T16:08:42.368Z,14.40
2018-11-06T16:11:09.839Z,14.40
2018-11-06T16:13:39.451Z,14.30
2018-11-06T16:16:07.120Z,14.30
2018-11-06T16:18:35.397Z,14.30
2018-11-06T16:21:02.914Z,14.20
2018-11-06T16:23:36.472Z,14.20
2018-11-06T16:26:04.022Z,14.20
2018-11-06T16:28:33.242Z,14.20
2018-11-06T16:31:00.659Z,14.20
2018-11-06T16:33:28.050Z,14.10
2018-11-06T16:35:56.453Z,14.10
2018-11-06T16:38:23.949Z,14.10
2018-11-06T16:40:57.610Z,14.10
2018-11-06T16:43:25.093Z,14.00
2018-11-06T16:45:54.364Z,14.00
2018-11-06T16:48:22.938Z,14.00
2018-11-06T16:50:56.719Z,14.00
2018-11-06T16:53:24.214Z,14.00
2018-11-06T16:55:57.790Z,13.90
2018-11-06T16:58:31.438Z,13.90
2018-11-06T17:00:59.129Z,13.80
2018-11-06T17:03:26.430Z,13.80
2018-11-06T17:06:00.211Z,13.70
2018-11-06T17:08:33.883Z,13.70
2018-11-06T17:11:01.317Z,13.70
2018-11-06T17:13:29.446Z,13.70
2018-11-06T17:15:56.808Z,13.60
2018-11-06T17:18:24.345Z,13.60
2018-11-06T17:20:57.973Z,13.60
2018-11-06T17:23:25.407Z,13.60
2018-11-06T17:27:17.651Z,13.60
2018-11-06T17:29:45.149Z,13.50
2018-11-06T17:32:12.644Z,13.50
2018-11-06T17:34:40.125Z,13.40
2018-11-06T17:37:13.810Z,13.40
2018-11-06T17:39:42.190Z,13.40
2018-11-06T17:42:09.525Z,13.40
2018-11-06T17:44:43.105Z,13.30
2018-11-06T17:47:10.591Z,13.30
2018-11-06T17:49:38.076Z,13.30
2018-11-06T17:52:05.567Z,13.20
2018-11-06T17:54:34.058Z,13.20
2018-11-06T17:57:01.588Z,13.10
2018-11-06T17:59:35.224Z,13.10
2018-11-06T18:02:08.892Z,13.10
2018-11-06T18:04:42.475Z,13.10
2018-11-06T18:07:16.126Z,13.00
2018-11-06T18:09:44.496Z,13.00
2018-11-06T18:12:11.994Z,12.90
2018-11-06T18:14:45.616Z,12.90
2018-11-06T18:17:13.077Z,12.90
2018-11-06T18:19:40.588Z,12.80
2018-11-06T18:22:14.338Z,12.80
2018-11-06T18:24:41.851Z,12.80
2018-11-06T18:27:09.314Z,12.80
2018-11-06T18:29:36.845Z,12.80
2018-11-06T18:32:04.559Z,12.80
2018-11-06T18:34:32.212Z,12.70
2018-11-06T18:36:59.727Z,12.70
2018-11-06T18:39:27.251Z,12.70
2018-11-06T18:41:54.687Z,12.60
2018-11-06T18:44:28.363Z,12.60
2018-11-06T18:46:55.833Z,12.60
2018-11-06T18:49:23.241Z,12.50
2018-11-06T18:51:57.932Z,12.50
2018-11-06T18:54:26.256Z,12.50
2018-11-06T18:56:59.978Z,12.50
2018-11-06T18:59:33.537Z,12.40
2018-11-06T19:02:02.051Z,12.40
2018-11-06T19:04:35.628Z,12.40
2018-11-06T19:07:03.123Z,12.40
2018-11-06T19:09:30.606Z,12.30
2018-11-06T19:12:04.470Z,12.40
2018-11-06T19:14:31.937Z,12.30
2018-11-06T19:17:05.923Z,12.30
2018-11-06T19:19:39.411Z,12.30
2018-11-06T19:22:13.113Z,12.30
2018-11-06T19:24:40.529Z,12.30
2018-11-06T19:27:08.086Z,12.20
2018-11-06T19:29:35.690Z,12.20
2018-11-06T19:32:04.400Z,12.20
2018-11-06T19:34:31.977Z,12.20
2018-11-06T19:37:05.777Z,12.20
2018-11-06T19:39:33.202Z,12.20
2018-11-06T19:42:00.957Z,12.10
2018-11-06T19:44:28.453Z,12.10
2018-11-06T19:46:56.018Z,12.10
2018-11-06T19:49:23.490Z,12.10
2018-11-06T19:51:51.821Z,12.00
2018-11-06T19:54:20.410Z,12.00
2018-11-06T19:56:47.918Z,11.90
2018-11-06T19:59:21.576Z,11.90
2018-11-06T20:01:49.109Z,11.80
2018-11-06T20:04:16.643Z,11.80
2018-11-06T20:06:44.101Z,11.80
2018-11-06T20:09:17.849Z,11.80
2018-11-06T20:11:45.482Z,11.80
2018-11-06T20:14:12.989Z,11.70
2018-11-06T20:16:40.588Z,11.70
2018-11-06T20:19:14.440Z,11.70
2018-11-06T20:21:48.271Z,11.60
2018-11-06T20:24:15.931Z,11.60
2018-11-06T20:26:43.346Z,11.60
2018-11-06T20:29:10.775Z,11.60
2018-11-06T20:31:44.340Z,11.50
2018-11-06T20:34:12.762Z,11.50
2018-11-06T20:36:40.206Z,11.50
2018-11-06T20:39:13.997Z,11.50
2018-11-06T20:41:42.256Z,11.50
2018-11-06T20:44:16.082Z,11.40
2018-11-06T20:46:43.565Z,11.40
2018-11-06T20:49:11.022Z,11.40
2018-11-06T20:51:44.744Z,11.40
2018-11-06T20:54:12.287Z,11.30
2018-11-06T20:56:39.825Z,11.30
2018-11-06T20:59:08.395Z,11.30
2018-11-06T21:01:37.038Z,11.20
2018-11-06T21:04:05.896Z,11.20
2018-11-06T21:06:34.551Z,11.10
2018-11-06T21:09:02.916Z,11.10
2018-11-06T21:11:30.991Z,11.10
2018-11-06T21:13:58.585Z,11.00
2018-11-06T21:16:26.786Z,11.00
2018-11-06T21:18:54.283Z,11.00
2018-11-06T21:21:27.912Z,11.00
2018-11-06T21:23:55.481Z,10.90
2018-11-06T21:26:23.060Z,10.90
2018-11-06T21:28:50.587Z,10.90
2018-11-06T21:31:18.125Z,10.90
2018-11-06T21:33:46.521Z,10.90
2018-11-06T21:36:13.981Z,10.80
2018-11-06T21:38:41.445Z,10.80
2018-11-06T21:41:15.226Z,10.80
2018-11-06T21:43:42.753Z,10.70
2018-11-06T21:46:11.006Z,10.70
2018-11-06T21:48:44.623Z,10.70
2018-11-06T21:51:18.337Z,10.60
2018-11-06T21:53:45.967Z,10.60
2018-11-06T21:56:19.661Z,10.60
2018-11-06T21:58:53.431Z,10.60
2018-11-06T22:01:20.912Z,10.50
2018-11-06T22:03:54.836Z,10.50
2018-11-06T22:06:24.449Z,10.50
2018-11-06T22:08:51.925Z,10.50
2018-11-06T22:11:19.344Z,10.40
2018-11-06T22:13:46.793Z,10.40
2018-11-06T22:16:15.368Z,10.40
2018-11-06T22:18:42.852Z,10.30
2018-11-06T22:21:10.236Z,10.30
2018-11-06T22:23:38.421Z,10.30
2018-11-06T22:26:05.959Z,10.30
2018-11-06T22:28:39.693Z,10.20
2018-11-06T22:31:07.142Z,10.20
2018-11-06T22:33:34.619Z,10.20
2018-11-06T22:36:02.267Z,10.20
2018-11-06T22:38:35.841Z,10.20
2018-11-06T22:41:03.252Z,10.10
2018-11-06T22:43:37.014Z,10.10
2018-11-06T22:46:04.501Z,10.20
2018-11-06T22:48:31.929Z,10.10
2018-11-06T22:50:59.942Z,10.10
2018-11-06T22:53:27.418Z,10.10
2018-11-06T22:55:54.833Z,10.10
2018-11-06T22:58:22.417Z,10.10
2018-11-06T23:00:55.510Z,10.10
2018-11-06T23:03:22.952Z,10.10
2018-11-06T23:05:51.080Z,10.00
2018-11-06T23:08:23.503Z,10.00
2018-11-06T23:10:51.052Z,10.00
2018-11-06T23:13:18.433Z,10.00
2018-11-06T23:15:45.772Z,10.00
2018-11-06T23:18:19.455Z,10.00
2018-11-06T23:20:46.946Z,10.00
2018-11-06T23:23:14.509Z,10.00
2018-11-06T23:25:41.917Z,10.00
2018-11-06T23:28:09.278Z,9.90
2018-11-06T23:30:36.673Z,9.90
2018-11-06T23:33:04.351Z,9.90
2018-11-06T23:35:36.906Z,9.90
2018-11-06T23:38:04.352Z,9.90
2018-11-06T23:40:31.688Z,9.90
2018-11-06T23:42:59.058Z,9.90
2018-11-06T23:45:28.545Z,9.90
2018-11-06T23:47:59.007Z,9.90
2018-11-06T23:50:32.795Z,9.90
2018-11-06T23:53:00.322Z,9.90
2018-11-06T23:55:27.685Z,9.90
2018-11-06T23:57:55.042Z,9.90
